Tuesday, September 25, 2018, 6:57 PM EDT
Back to Local

KABE, Lehigh Valley International Airport

Location: Allentown, PA, United States Lat: 40.65
Local Time: 6:57 PM EDT (22:57 GMT) Lon: -75.45
Time Zone: US/Eastern Elev: 393 ft

Show me the last for .
Show Decoded

2018-09-25 18:35 METAR KABE 252235Z AUTO 07004KT 7SM -RA OVC004 18/16 A3016 RMK AO2 RAB29 P0000
                 T01830161 =
2018-09-25 18:19 METAR KABE 252219Z AUTO 06003KT 9SM OVC005 18/16 A3017 RMK AO2 T01830161 =
2018-09-25 17:51 METAR KABE 252151Z AUTO 05003KT 10SM OVC004 18/16 A3017 RMK AO2 RAE19 SLP215
                 P0000 T01830161 =
2018-09-25 16:51 METAR KABE 252051Z AUTO 08004KT 9SM -RA BKN004 BKN023 OVC038 18/16 A3018 RMK AO2
                 RAB18 SLP218 P0001 60023 T01780161 56010 =
2018-09-25 16:25 METAR KABE 252025Z 04003KT 9SM -RA SCT006 SCT026 OVC037 18/16 A3018 RMK AO2
                 RAB18 P0000 T01780156 =
2018-09-25 16:13 METAR KABE 252013Z 07003KT 10SM SCT004 BKN009 OVC065 17/16 A3018 RMK AO2
                 T01720156 =
2018-09-25 15:58 METAR KABE 251958Z 11004KT 10SM SCT004 BKN010 OVC065 18/16 A3019 =
2018-09-25 15:51 METAR KABE 251951Z 10004KT 7SM BR SCT007 BKN019 OVC065 17/16 A3019 RMK AO2 RAE44
                 SLP222 P0015 T01720156 =
2018-09-25 15:48 METAR KABE 251948Z 10004KT 7SM BR SCT007 BKN019 OVC065 17/16 A3019 RMK AO2 RAE44
                 P0015 =
2018-09-25 15:38 METAR KABE 251938Z 09003KT 10SM -RA SCT007 SCT019 OVC065 17/16 A3019 RMK AO2
                 P0015 T01720156 =
2018-09-25 15:31 METAR KABE 251931Z 11005KT 3SM -RA BR BKN005 BKN019 OVC060 17/15 A3020 RMK AO2
                 P0015 T01670150 =
2018-09-25 15:20 METAR KABE 251920Z 09006KT 1 3/4SM +RA BR BKN005 OVC018 17/15 A3020 RMK AO2
                 P0007 T01670150 =
2018-09-25 14:51 METAR KABE 251851Z 07003KT 5SM -RA BR BKN005 OVC011 17/14 A3021 RMK AO2 SLP229
                 P0007 T01670144 =
2018-09-25 13:51 METAR KABE 251751Z 08007KT 5SM -RA BR BKN005 OVC011 16/14 A3023 RMK AO2 SLP235
                 P0008 60081 T01610144 10161 20144 56026 =
2018-09-25 12:51 METAR KABE 251651Z 07007KT 4SM RA BR OVC005 16/13 A3025 RMK AO2 SLP244 P0006
                 T01560133 =
2018-09-25 11:58 METAR KABE 251558Z 07007KT 4SM -RA BR BKN005 OVC016 15/13 A3027 =
2018-09-25 11:51 METAR KABE 251551Z 08007KT 6SM -RA BR BKN025 BKN033 OVC065 15/13 A3028 RMK AO2
                 SLP252 P0019 T01500133 =
2018-09-25 11:12 METAR KABE 251512Z 05006KT 4SM -RA BR BKN025 BKN033 OVC065 15/13 A3029 RMK AO2
                 P0013 T01500133 =
2018-09-25 11:02 METAR KABE 251502Z 05008KT 2SM +RA BR BKN023 OVC029 14/13 A3029 RMK AO2 P0011
                 T01440128 =
2018-09-25 10:51 METAR KABE 251451Z 36005KT 1SM +RA BR VV012 14/13 A3030 RMK AO2 SLP261 P0036
                 60048 T01440128 56005 =
2018-09-25 10:41 METAR KABE 251441Z 36003KT 1SM +RA BR VV017 14/13 A3031 =
2018-09-25 10:20 METAR KABE 251420Z 03006KT 1SM +RA BR FEW006 OVC012 14/13 A3030 RMK AO2 P0017
                 T01440128 =
2018-09-25 09:58 METAR KABE 251358Z 04007KT 1SM +RA BR OVC007 14/13 A3030 =
2018-09-25 09:51 METAR KABE 251351Z 04007KT 3SM -RA BR OVC007 14/13 A3031 RMK AO2 SLP263 P0007
                 T01440128 =
2018-09-25 09:17 METAR KABE 251317Z 05007KT 1 3/4SM -RA BR OVC007 14/13 A3031 RMK AO2 P0004
                 T01440128 =
2018-09-25 08:51 METAR KABE 251251Z 05006KT 2SM -RA BR OVC005 14/13 A3031 RMK AO2 SLP263 P0005
                 T01440128 =
2018-09-25 07:51 METAR KABE 251151Z 07010KT 4SM -RA BR OVC006 14/12 A3032 RMK AO2 SLP267 P0012
                 60032 70036 T01440122 10144 20139 56010 =
2018-09-25 06:51 METAR KABE 251051Z 06008KT 3SM -RA BR OVC006 14/12 A3033 RMK AO2 SFC VIS 4
                 SLP270 P0009 T01440122 =
2018-09-25 06:24 METAR KABE 251024Z 08010KT 5SM -RA BR BKN007 OVC012 14/12 A3034 RMK AO2 P0006
                 T01440122 =
2018-09-25 06:15 METAR KABE 251015Z 08010KT 4SM RA BR SCT007 OVC012 14/12 A3034 RMK AO2 P0005
                 T01440122 =
2018-09-25 06:00 METAR KABE 251000Z 08010KT 6SM RA BR OVC010 14/12 A3034 RMK AO2 P0001 T01440122
                 =
2018-09-25 05:51 METAR KABE 250951Z 07011KT 7SM RA OVC008 14/12 A3034 RMK AO2 SLP274 P0003
                 T01440122 =
2018-09-25 04:51 METAR KABE 250851Z 07010KT 3SM -RA BR OVC007 14/12 A3035 RMK AO2 SFC VIS 5
                 SLP277 P0004 60008 T01390122 56020 =
2018-09-25 03:51 METAR KABE 250751Z 07011KT 3SM -RA OVC007 14/12 A3037 RMK AO2 SFC VIS 8 RAB19
                 SLP283 P0001 T01440122 =
2018-09-25 02:51 METAR KABE 250651Z 08010G18KT 3SM OVC008 14/12 A3038 RMK AO2 SFC VIS 7 RAE22
                 SLP285 P0003 T01440122 =
2018-09-25 02:43 METAR KABE 250643Z 08013KT 3SM OVC008 14/12 A3038 RMK AO2 SFC VIS 7 RAE22 P0003
                 T01440122 =
2018-09-25 02:13 METAR KABE 250613Z 08008KT 2SM -RA BR BKN008 OVC012 14/13 A3040 RMK AO2 SFC VIS
                 5 P0003 T01440128 =
2018-09-25 02:02 METAR KABE 250602Z 08010KT 2SM RA BR OVC010 14/12 A3041 RMK AO2 SFC VIS 2 1/2
                 P0002 T01440122 =
2018-09-25 01:51 METAR KABE 250551Z 08008KT 3SM -RA BR OVC012 14/12 A3041 RMK AO2 SLP297 P0003
                 60004 T01440122 10183 20144 58013 =
2018-09-25 01:43 METAR KABE 250543Z 08008KT 4SM -RA BR OVC012 14/12 A3041 RMK AO2 P0002 T01440122
                 =
2018-09-25 00:51 METAR KABE 250451Z 08012KT 10SM -RA BKN019 OVC028 15/12 A3042 RMK AO2 SLP300
                 P0001 T01500122 402220139 =
2018-09-25 00:40 METAR KABE 250440Z 08011KT 10SM -RA BKN020 BKN025 OVC030 15/12 A3042 RMK AO2
                 P0001 T01500122 =
2018-09-24 23:51 METAR KABE 250351Z 08010KT 9SM -RA FEW024 OVC037 16/12 A3045 RMK AO2 RAB0257
                 SLP309 P0000 T01560117 =
2018-09-24 23:11 METAR KABE 250311Z 09012KT 10SM -RA BKN030 OVC041 17/11 A3045 RMK AO2 RAB0257
                 P0000 T01670111 =
2018-09-24 22:51 METAR KABE 250251Z 09011KT 10SM BKN027 OVC041 17/11 A3045 RMK AO2 SLP310
                 T01720111 51006 =
2018-09-24 22:40 METAR KABE 250240Z 09009KT 10SM BKN027 OVC041 17/11 A3045 RMK AO2 T01720106 =
2018-09-24 21:51 METAR KABE 250151Z AUTO 09010KT 10SM SCT028 OVC040 17/11 A3044 RMK AO2 SLP308
                 T01720106 =
2018-09-24 21:12 METAR KABE 250112Z 09011G19KT 10SM SCT028 OVC047 17/11 A3044 RMK AO2 T01720111 =
2018-09-24 20:51 METAR KABE 250051Z 08009KT 10SM BKN028 OVC049 18/11 A3045 RMK AO2 SLP310
                 T01780111 =
2018-09-24 20:05 METAR KABE 250005Z 11010G20KT 10SM BKN028 OVC050 18/11 A3043 RMK AO2 T01780111 =
2018-09-24 19:51 METAR KABE 242351Z 10012KT 10SM SCT028 SCT034 OVC048 18/11 A3043 RMK AO2 SLP304
                 T01830111 10222 20183 53005 =

Support USWX by starting your Amazon purchase here.